Time;durP1;ratioP1;P1;durP2;ratioP2;P2;SDS_P1;SDS_P2;PMS_P1;PMS_P2;Temp;Humidity;BMP_temperature;BMP_pressure;BME280_temperature;BME280_humidity;BME280_pressure;Samples;Min_cycle;Max_cycle;Signal;HPM_P1;HPM_P2
2023/05/18 00:01:56;;;;;;;;;;;;;;;6.66;100.00;102781.16;5012804;28;19933;-74
2023/05/18 00:04:22;;;;;;;;;;;;;;;6.57;100.00;102765.44;5010656;28;20330;-74
2023/05/18 00:06:48;;;;;;;;;;;;;;;6.42;100.00;102770.28;5017222;28;20011;-74
2023/05/18 00:09:13;;;;;;;;;;;;;;;6.50;100.00;102766.53;5000572;28;19938;-74
2023/05/18 00:11:40;;;;;;;;;;;;;;;6.44;100.00;102765.78;4994944;28;20406;-74
2023/05/18 00:14:07;;;;;;;;;;;;;;;6.45;100.00;102762.19;5012211;28;19921;-74
2023/05/18 00:16:32;;;;;;;;;;;;;;;6.47;100.00;102767.50;5019384;28;19928;-74
2023/05/18 00:18:58;;;;;;;;;;;;;;;6.44;100.00;102768.44;5014111;28;19925;-74
2023/05/18 00:21:29;;;;;;;;;;;;;;;6.45;100.00;102772.88;5003379;28;20330;-74
2023/05/18 00:23:54;;;;;;;;;;;;;;;6.34;100.00;102764.31;5006530;28;20891;-73
2023/05/18 00:26:19;;;;;;;;;;;;;;;6.32;100.00;102774.16;4995015;28;20032;-74
2023/05/18 00:28:45;;;;;;;;;;;;;;;6.24;100.00;102771.69;5006742;28;20567;-74
2023/05/18 00:31:10;;;;;;;;;;;;;;;6.28;100.00;102768.00;4994993;28;19968;-74
2023/05/18 00:33:35;;;;;;;;;;;;;;;6.29;100.00;102769.75;5014137;28;19925;-74
2023/05/18 00:36:00;;;;;;;;;;;;;;;6.24;100.00;102771.69;5014637;28;19964;-74
2023/05/18 00:38:25;;;;;;;;;;;;;;;6.24;100.00;102770.81;5012977;28;20051;-74
2023/05/18 00:40:51;;;;;;;;;;;;;;;6.11;100.00;102770.31;5012271;28;19968;-75
2023/05/18 00:43:16;;;;;;;;;;;;;;;6.10;100.00;102777.41;4987656;28;20008;-74
2023/05/18 00:45:41;;;;;;;;;;;;;;;6.03;100.00;102770.53;5017386;28;20040;-74
2023/05/18 00:48:06;;;;;;;;;;;;;;;6.03;100.00;102773.19;5003103;28;19932;-74
2023/05/18 00:50:32;;;;;;;;;;;;;;;6.05;100.00;102776.69;5000806;28;19925;-74
2023/05/18 00:52:57;;;;;;;;;;;;;;;6.02;100.00;102768.75;4994743;28;19925;-74
2023/05/18 00:55:22;;;;;;;;;;;;;;;6.00;100.00;102767.94;4983378;28;20007;-75
2023/05/18 00:57:47;;;;;;;;;;;;;;;6.00;100.00;102774.13;4993023;28;20340;-74
2023/05/18 01:00:13;;;;;;;;;;;;;;;5.99;100.00;102775.00;5012073;28;19921;-74
2023/05/18 01:02:44;;;;;;;;;;;;;;;5.95;100.00;102773.38;4993153;28;20455;-74
2023/05/18 01:05:09;;;;;;;;;;;;;;;5.99;100.00;102772.34;5001621;28;19921;-74
2023/05/18 01:07:36;;;;;;;;;;;;;;;5.92;100.00;102773.44;5005377;28;19932;-74
2023/05/18 01:10:01;;;;;;;;;;;;;;;5.80;100.00;102774.66;5012466;28;22496;-74
2023/05/18 01:12:40;;;;;;;;;;;;;;;5.77;100.00;102773.84;4989483;28;19961;-74
2023/05/18 01:15:15;;;;;;;;;;;;;;;5.79;100.00;102780.00;4994654;28;20416;-75
2023/05/18 01:17:50;;;;;;;;;;;;;;;5.76;100.00;102788.09;4991218;28;19951;-74
2023/05/18 01:20:21;;;;;;;;;;;;;;;5.68;100.00;102783.84;4996654;28;19924;-74
2023/05/18 01:22:47;;;;;;;;;;;;;;;5.65;100.00;102794.59;4993963;28;20010;-74
2023/05/18 01:25:45;;;;;;;;;;;;;;;5.70;100.00;102787.31;5007663;28;20508;-74
2023/05/18 01:28:12;;;;;;;;;;;;;;;5.61;100.00;102792.03;4952713;28;19921;-74
2023/05/18 01:30:39;;;;;;;;;;;;;;;5.66;100.00;102796.34;4990072;28;19924;-74
2023/05/18 01:33:08;;;;;;;;;;;;;;;5.63;100.00;102790.19;4989991;28;19928;-75
2023/05/18 01:35:34;;;;;;;;;;;;;;;5.58;100.00;102798.31;4992289;28;19925;-74
2023/05/18 01:37:59;;;;;;;;;;;;;;;5.54;100.00;102793.97;5008107;28;19932;-74
2023/05/18 01:40:24;;;;;;;;;;;;;;;5.52;100.00;102791.38;5007767;28;19921;-75
2023/05/18 01:42:50;;;;;;;;;;;;;;;5.52;100.00;102790.47;5004995;28;20435;-74
2023/05/18 01:45:22;;;;;;;;;;;;;;;5.50;100.00;102792.28;5007728;28;19920;-74
2023/05/18 01:47:48;;;;;;;;;;;;;;;5.51;100.00;102788.72;5001968;28;20620;-74
2023/05/18 01:50:14;;;;;;;;;;;;;;;5.45;100.00;102794.19;5009859;28;19927;-75
2023/05/18 01:52:45;;;;;;;;;;;;;;;5.52;100.00;102794.03;5012721;28;19999;-74
2023/05/18 01:55:10;;;;;;;;;;;;;;;5.43;100.00;102790.72;5010082;28;20857;-74
2023/05/18 01:57:36;;;;;;;;;;;;;;;5.51;100.00;102792.28;4977314;28;20027;-73
2023/05/18 02:00:04;;;;;;;;;;;;;;;5.55;100.00;102790.41;4995102;28;19968;-74
2023/05/18 02:02:29;;;;;;;;;;;;;;;5.51;100.00;102784.28;5011736;28;19925;-74
2023/05/18 02:04:55;;;;;;;;;;;;;;;5.54;100.00;102780.66;4999833;28;19984;-74
2023/05/18 02:07:20;;;;;;;;;;;;;;;5.46;100.00;102782.63;5001438;28;20421;-74
2023/05/18 02:09:45;;;;;;;;;;;;;;;5.44;100.00;102777.34;4997416;28;19979;-74
2023/05/18 02:12:11;;;;;;;;;;;;;;;5.49;100.00;102783.44;4994522;28;19991;-74
2023/05/18 02:14:36;;;;;;;;;;;;;;;5.46;100.00;102783.50;4989558;28;19961;-74
2023/05/18 02:17:01;;;;;;;;;;;;;;;5.48;100.00;102780.78;4997386;28;19925;-73
2023/05/18 02:19:26;;;;;;;;;;;;;;;5.53;100.00;102779.78;4999006;28;19921;-74
2023/05/18 02:21:52;;;;;;;;;;;;;;;5.47;100.00;102785.28;4986376;28;20324;-74
2023/05/18 02:24:17;;;;;;;;;;;;;;;5.44;100.00;102776.47;4996699;28;19964;-74
2023/05/18 02:26:42;;;;;;;;;;;;;;;5.44;100.00;102779.13;4998948;28;19921;-73
2023/05/18 02:29:13;;;;;;;;;;;;;;;5.44;100.00;102776.47;4980297;28;19921;-74
2023/05/18 02:31:38;;;;;;;;;;;;;;;5.37;100.00;102776.63;4979509;28;19964;-74
2023/05/18 02:34:03;;;;;;;;;;;;;;;5.42;100.00;102772.97;4995654;28;20059;-74
2023/05/18 02:36:35;;;;;;;;;;;;;;;5.30;100.00;102767.03;5016685;28;19928;-74
2023/05/18 02:39:01;;;;;;;;;;;;;;;5.33;100.00;102774.94;4998017;28;19925;-73
2023/05/18 02:41:26;;;;;;;;;;;;;;;5.39;100.00;102780.13;4994696;28;19928;-74
2023/05/18 02:43:52;;;;;;;;;;;;;;;5.37;100.00;102765.97;5000097;28;19925;-73
2023/05/18 02:46:17;;;;;;;;;;;;;;;5.39;100.00;102768.59;5016580;28;19925;-73
2023/05/18 02:48:44;;;;;;;;;;;;;;;5.32;100.00;102769.66;5005283;28;19921;-74
2023/05/18 02:51:09;;;;;;;;;;;;;;;5.36;100.00;102766.00;5024780;28;19928;-74
2023/05/18 02:53:34;;;;;;;;;;;;;;;5.29;100.00;102767.09;5000104;28;20210;-73
2023/05/18 02:56:02;;;;;;;;;;;;;;;5.34;100.00;102768.72;4989751;28;20403;-73
2023/05/18 02:58:27;;;;;;;;;;;;;;;5.32;100.00;102773.19;4997272;28;19944;-74
2023/05/18 03:00:59;;;;;;;;;;;;;;;5.32;100.00;102765.22;5016519;28;20355;-74
2023/05/18 03:03:24;;;;;;;;;;;;;;;5.34;100.00;102766.06;4991005;28;19921;-74
2023/05/18 03:05:52;;;;;;;;;;;;;;;5.31;100.00;102767.88;5001315;28;20322;-74
2023/05/18 03:08:25;;;;;;;;;;;;;;;5.22;100.00;102766.34;4982791;28;20275;-73
2023/05/18 03:10:51;;;;;;;;;;;;;;;5.25;100.00;102764.50;4999116;28;19926;-74
2023/05/18 03:13:18;;;;;;;;;;;;;;;5.30;100.00;102775.03;4997870;28;20040;-74
2023/05/18 03:15:44;;;;;;;;;;;;;;;5.28;100.00;102766.19;4991509;28;19929;-74
2023/05/18 03:18:09;;;;;;;;;;;;;;;5.22;100.00;102766.34;4990841;28;19925;-74
2023/05/18 03:20:36;;;;;;;;;;;;;;;5.17;100.00;102769.13;4992969;28;19944;-74
2023/05/18 03:23:01;;;;;;;;;;;;;;;5.15;100.00;102764.75;4978554;28;20359;-74
2023/05/18 03:25:27;;;;;;;;;;;;;;;5.12;100.00;102775.47;5003515;28;19975;-73
2023/05/18 03:27:52;;;;;;;;;;;;;;;5.10;100.00;102776.38;4977597;28;20007;-73
2023/05/18 03:30:20;;;;;;;;;;;;;;;5.08;100.00;102782.66;4977759;28;20046;-73
2023/05/18 03:32:46;;;;;;;;;;;;;;;5.08;100.00;102777.31;4999817;28;19929;-74
2023/05/18 03:35:11;;;;;;;;;;;;;;;5.07;100.00;102780.88;4989697;28;20422;-74
2023/05/18 03:37:36;;;;;;;;;;;;;;;4.94;100.00;102775.88;5018509;28;19925;-74
2023/05/18 03:40:09;;;;;;;;;;;;;;;4.96;100.00;102775.81;4998926;28;20328;-74
2023/05/18 03:42:35;;;;;;;;;;;;;;;4.97;100.00;102774.03;5005012;28;20289;-73
2023/05/18 03:45:00;;;;;;;;;;;;;;;4.95;100.00;102774.06;4990646;28;19936;-73
2023/05/18 03:47:25;;;;;;;;;;;;;;;4.96;100.00;102781.16;5011783;28;20390;-73
2023/05/18 03:49:51;;;;;;;;;;;;;;;4.88;100.00;102773.34;5006044;28;19920;-73
2023/05/18 03:52:21;;;;;;;;;;;;;;;4.88;100.00;102778.66;5006540;28;19929;-74
2023/05/18 03:54:49;;;;;;;;;;;;;;;4.88;100.00;102783.13;5006304;28;20868;-74
2023/05/18 03:57:17;;;;;;;;;;;;;;;4.86;100.00;102777.81;5036751;23;19929;-73
2023/05/18 03:59:43;;;;;;;;;;;;;;;4.87;100.00;102787.56;5037828;28;20426;-73
2023/05/18 04:02:08;;;;;;;;;;;;;;;4.90;100.00;102778.66;5026481;28;20422;-73
2023/05/18 04:04:34;;;;;;;;;;;;;;;4.88;100.00;102780.47;5032393;28;20315;-73
2023/05/18 04:07:01;;;;;;;;;;;;;;;4.96;100.00;102781.16;5031486;28;21858;-73
2023/05/18 04:09:26;;;;;;;;;;;;;;;4.97;100.00;102784.69;5037782;28;20435;-73
2023/05/18 04:11:52;;;;;;;;;;;;;;;5.03;100.00;102784.56;5026937;28;19968;-73
2023/05/18 04:14:17;;;;;;;;;;;;;;;5.01;100.00;102789.03;5030138;28;19939;-73
2023/05/18 04:16:42;;;;;;;;;;;;;;;5.04;100.00;102786.28;5040030;28;20100;-73
2023/05/18 04:19:09;;;;;;;;;;;;;;;5.10;100.00;102788.81;5030134;28;20135;-73
2023/05/18 04:21:34;;;;;;;;;;;;;;;5.13;100.00;102793.22;5027833;28;19927;-73
2023/05/18 04:24:06;;;;;;;;;;;;;;;5.14;100.00;102798.47;5026245;28;19924;-73
2023/05/18 04:26:33;;;;;;;;;;;;;;;5.17;100.00;102795.75;5038311;28;19999;-74
2023/05/18 04:28:59;;;;;;;;;;;;;;;5.24;100.00;102797.38;5041043;28;19921;-73
2023/05/18 04:31:28;;;;;;;;;;;;;;;5.29;100.00;102804.38;5029745;28;19932;-73
2023/05/18 04:33:53;;;;;;;;;;;;;;;5.31;100.00;102805.19;5026512;28;19920;-72
2023/05/18 04:36:19;;;;;;;;;;;;;;;5.31;100.00;102808.75;5024516;28;20291;-73
2023/05/18 04:38:44;;;;;;;;;;;;;;;5.42;100.00;102802.28;5028778;28;20015;-73
2023/05/18 04:41:09;;;;;;;;;;;;;;;5.50;100.00;102803.84;5034614;28;20019;-73
2023/05/18 04:43:35;;;;;;;;;;;;;;;5.61;100.00;102808.91;5027703;28;20161;-73
2023/05/18 04:46:00;;;;;;;;;;;;;;;5.66;100.00;102812.34;5030556;28;19925;-73
2023/05/18 04:48:26;;;;;;;;;;;;;;;5.74;100.00;102811.22;5048291;28;19959;-73
2023/05/18 04:50:53;;;;;;;;;;;;;;;5.82;100.00;102814.59;5042351;28;19924;-72
2023/05/18 04:53:19;;;;;;;;;;;;;;;5.88;100.00;102806.44;5024777;28;19932;-72
2023/05/18 04:55:45;;;;;;;;;;;;;;;5.95;100.00;102805.38;5027829;28;19925;-73
2023/05/18 04:58:10;;;;;;;;;;;;;;;6.05;100.00;102803.34;5026445;28;20337;-73
2023/05/18 05:00:36;;;;;;;;;;;;;;;6.14;100.00;102815.56;5026965;28;20006;-73
2023/05/18 05:03:01;;;;;;;;;;;;;;;6.25;100.00;102815.25;5023943;28;20437;-72
2023/05/18 05:05:28;;;;;;;;;;;;;;;6.27;100.00;102810.75;5026738;28;19929;-73
2023/05/18 05:07:54;;;;;;;;;;;;;;;6.36;100.00;102815.81;5042227;28;20007;-72
2023/05/18 05:10:19;;;;;;;;;;;;;;;6.47;100.00;102814.66;5027568;28;20028;-72
2023/05/18 05:12:45;;;;;;;;;;;;;;;6.55;100.00;102818.84;5040905;28;19925;-72
2023/05/18 05:15:10;;;;;;;;;;;;;;;6.48;100.00;102806.59;5044449;28;20193;-73
2023/05/18 05:17:35;;;;;;;;;;;;;;;6.53;100.00;102820.66;5042427;28;20008;-73
2023/05/18 05:20:01;;;;;;;;;;;;;;;6.60;100.00;102822.25;5041629;28;19920;-73
2023/05/18 05:22:26;;;;;;;;;;;;;;;6.65;100.00;102818.56;5024662;28;20057;-73
2023/05/18 05:24:51;;;;;;;;;;;;;;;6.74;100.00;102818.31;5026335;28;20473;-72
2023/05/18 05:27:17;;;;;;;;;;;;;;;6.77;100.00;102823.53;5023442;28;19968;-73
2023/05/18 05:29:44;;;;;;;;;;;;;;;6.79;100.00;102827.03;5042109;28;20854;-72
2023/05/18 05:32:11;;;;;;;;;;;;;;;6.85;100.00;102826.00;5042209;28;19929;-73
2023/05/18 05:34:36;;;;;;;;;;;;;;;6.95;100.00;102826.59;5033831;28;19921;-73
2023/05/18 05:37:01;;;;;;;;;;;;;;;7.01;100.00;102829.94;5027094;28;19956;-73
2023/05/18 05:39:26;;;;;;;;;;;;;;;7.05;100.00;102815.56;5032353;28;19925;-72
2023/05/18 05:41:52;;;;;;;;;;;;;;;7.11;100.00;102821.66;5030697;28;20420;-73
2023/05/18 05:44:17;;;;;;;;;;;;;;;7.15;100.00;102820.63;5028914;28;20359;-71
2023/05/18 05:46:42;;;;;;;;;;;;;;;7.24;100.00;102825.66;5031547;28;20395;-72
2023/05/18 05:49:07;;;;;;;;;;;;;;;7.35;100.00;102817.28;5031473;28;19917;-73
2023/05/18 05:51:32;;;;;;;;;;;;;;;7.27;100.00;102814.88;5035881;28;19937;-75
2023/05/18 05:53:58;;;;;;;;;;;;;;;7.36;100.00;102821.72;5052175;28;20722;-72
2023/05/18 05:56:23;;;;;;;;;;;;;;;7.42;100.00;102820.63;5051003;28;20054;-73
2023/05/18 05:58:48;;;;;;;;;;;;;;;7.47;100.00;102816.91;5033617;28;19925;-73
2023/05/18 06:01:13;;;;;;;;;;;;;;;7.66;100.00;102824.31;5053368;28;19921;-73
2023/05/18 06:03:39;;;;;;;;;;;;;;;7.60;100.00;102817.38;5034263;28;19930;-73
2023/05/18 06:06:04;;;;;;;;;;;;;;;7.74;100.00;102824.03;5032115;28;19928;-74
2023/05/18 06:08:29;;;;;;;;;;;;;;;7.82;100.00;102822.00;5055563;28;19924;-73
2023/05/18 06:10:55;;;;;;;;;;;;;;;7.87;100.00;102824.50;5045306;28;19982;-72
2023/05/18 06:13:20;;;;;;;;;;;;;;;8.01;100.00;102815.97;5040620;28;19951;-72
2023/05/18 06:15:45;;;;;;;;;;;;;;;8.02;100.00;102831.09;5031359;28;19964;-72
2023/05/18 06:18:10;;;;;;;;;;;;;;;8.23;100.00;102818.78;5027704;28;19920;-75
2023/05/18 06:20:36;;;;;;;;;;;;;;;8.27;100.00;102820.41;5015140;28;19931;-73
2023/05/18 06:23:01;;;;;;;;;;;;;;;8.36;100.00;102820.06;5024471;28;20039;-75
2023/05/18 06:25:26;;;;;;;;;;;;;;;8.54;100.00;102828.41;5044924;28;19921;-73
2023/05/18 06:27:53;;;;;;;;;;;;;;;8.78;100.00;102828.38;5026309;28;19921;-75
2023/05/18 06:30:19;;;;;;;;;;;;;;;8.94;100.00;102823.31;5033048;28;20435;-73
2023/05/18 06:32:44;;;;;;;;;;;;;;;8.93;100.00;102829.59;5046557;28;20269;-73
2023/05/18 06:35:11;;;;;;;;;;;;;;;8.99;99.20;102826.69;5034080;28;19925;-73
2023/05/18 06:37:37;;;;;;;;;;;;;;;9.21;100.00;102826.69;5029428;28;20039;-74
2023/05/18 06:40:03;;;;;;;;;;;;;;;9.35;99.83;102830.63;5032180;28;19931;-74
2023/05/18 06:42:29;;;;;;;;;;;;;;;9.49;100.00;102832.75;5024158;28;20259;-72
2023/05/18 06:44:54;;;;;;;;;;;;;;;9.50;96.19;102830.00;5031083;28;19982;-74
2023/05/18 06:47:19;;;;;;;;;;;;;;;9.19;93.64;102825.88;5033812;28;19995;-73
2023/05/18 06:49:44;;;;;;;;;;;;;;;9.22;96.46;102832.94;5046001;28;20690;-73
2023/05/18 06:52:09;;;;;;;;;;;;;;;9.15;100.00;102841.22;5045395;28;19967;-74
2023/05/18 06:54:36;;;;;;;;;;;;;;;9.30;97.66;102836.16;5024367;28;19927;-73
2023/05/18 06:57:01;;;;;;;;;;;;;;;9.49;99.58;102846.16;5046068;28;19917;-74
2023/05/18 06:59:26;;;;;;;;;;;;;;;9.65;92.46;102838.34;5023941;28;19952;-73
2023/05/18 07:01:51;;;;;;;;;;;;;;;9.59;93.79;102845.72;5030076;28;19928;-74
2023/05/18 07:04:18;;;;;;;;;;;;;;;9.73;91.66;102838.88;5029090;28;20012;-74
2023/05/18 07:06:43;;;;;;;;;;;;;;;9.99;90.86;102845.81;5027471;28;20035;-74
2023/05/18 07:09:08;;;;;;;;;;;;;;;9.98;93.19;102848.56;5030948;28;19925;-73
2023/05/18 07:11:34;;;;;;;;;;;;;;;9.89;92.06;102842.66;5028531;28;20023;-72
2023/05/18 07:14:00;;;;;;;;;;;;;;;9.95;86.71;102849.56;5027339;28;19924;-73
2023/05/18 07:16:26;;;;;;;;;;;;;;;10.17;95.36;102844.16;5012529;28;19921;-74
2023/05/18 07:18:52;;;;;;;;;;;;;;;10.19;88.08;102844.06;5030508;28;19933;-73
2023/05/18 07:21:18;;;;;;;;;;;;;;;10.16;84.46;102845.09;5029283;28;20361;-75
2023/05/18 07:23:43;;;;;;;;;;;;;;;10.15;86.01;102842.47;5023594;28;19946;-74
2023/05/18 07:26:10;;;;;;;;;;;;;;;10.19;86.28;102847.66;5028389;28;20379;-76
2023/05/18 07:28:35;;;;;;;;;;;;;;;10.13;85.44;102847.03;5028032;28;19971;-74
2023/05/18 07:31:01;;;;;;;;;;;;;;;10.34;87.48;102848.75;5047448;28;20373;-73
2023/05/18 07:33:26;;;;;;;;;;;;;;;10.16;82.75;102861.19;5026726;28;19958;-73
2023/05/18 07:35:51;;;;;;;;;;;;;;;10.03;81.46;102863.53;5027961;28;19960;-74
2023/05/18 07:38:16;;;;;;;;;;;;;;;9.94;82.58;102857.66;5026551;28;19925;-75
2023/05/18 07:40:42;;;;;;;;;;;;;;;10.14;85.06;102871.13;5033371;28;19921;-75
2023/05/18 07:43:07;;;;;;;;;;;;;;;10.18;84.39;102863.81;5028394;28;20044;-75
2023/05/18 07:45:32;;;;;;;;;;;;;;;10.33;83.60;102860.44;5031165;28;19921;-74
2023/05/18 07:47:59;;;;;;;;;;;;;;;10.46;84.86;102860.78;5032162;28;19920;-73
2023/05/18 07:50:25;;;;;;;;;;;;;;;10.39;83.82;102867.41;5031689;28;20086;-74
2023/05/18 07:52:50;;;;;;;;;;;;;;;10.38;81.64;102859.34;5024538;28;20364;-73
2023/05/18 07:55:16;;;;;;;;;;;;;;;10.94;85.56;102863.13;5028704;28;19920;-73
2023/05/18 07:57:41;;;;;;;;;;;;;;;11.20;79.35;102869.06;5028948;28;19991;-74
2023/05/18 08:00:09;;;;;;;;;;;;;;;11.18;81.29;102869.13;5024924;28;20409;-75
2023/05/18 08:02:34;;;;;;;;;;;;;;;11.40;79.74;102877.03;5032171;28;19925;-74
2023/05/18 08:04:59;;;;;;;;;;;;;;;11.76;85.36;102869.88;5027051;28;19987;-72
2023/05/18 08:07:25;;;;;;;;;;;;;;;12.04;77.80;102868.50;5030161;28;19995;-72
2023/05/18 08:09:50;;;;;;;;;;;;;;;11.95;77.34;102872.53;5027547;28;20006;-74
2023/05/18 08:12:15;;;;;;;;;;;;;;;12.27;77.04;102870.00;5024603;28;19961;-72
2023/05/18 08:14:41;;;;;;;;;;;;;;;12.42;75.66;102870.13;5030062;28;19970;-73
2023/05/18 08:17:06;;;;;;;;;;;;;;;12.08;69.56;102878.19;5060371;28;19921;-72
2023/05/18 08:19:31;;;;;;;;;;;;;;;12.52;70.16;102871.41;5028121;28;19925;-73
2023/05/18 08:21:56;;;;;;;;;;;;;;;12.74;73.63;102881.00;5010987;28;19936;-72
2023/05/18 08:24:21;;;;;;;;;;;;;;;12.80;72.50;102877.09;5031845;28;19925;-74
2023/05/18 08:26:47;;;;;;;;;;;;;;;12.84;74.04;102876.88;5027292;28;19947;-73
2023/05/18 08:29:12;;;;;;;;;;;;;;;12.36;67.94;102873.16;5025276;28;19998;-73
2023/05/18 08:31:38;;;;;;;;;;;;;;;12.35;68.71;102879.50;5030631;28;20571;-74
2023/05/18 08:34:03;;;;;;;;;;;;;;;12.40;71.96;102866.66;5027307;28;19960;-73
2023/05/18 08:36:30;;;;;;;;;;;;;;;12.48;69.39;102850.97;5033798;28;19956;-72
2023/05/18 08:38:55;;;;;;;;;;;;;;;12.18;66.94;102865.09;5029588;28;20473;-73
2023/05/18 08:41:27;;;;;;;;;;;;;;;12.42;69.96;102857.56;5032618;28;19925;-73
2023/05/18 08:43:52;;;;;;;;;;;;;;;12.67;66.88;102866.13;5025223;28;19924;-71
2023/05/18 08:46:25;;;;;;;;;;;;;;;12.74;68.13;102857.59;5014882;28;19967;-72
2023/05/18 08:48:51;;;;;;;;;;;;;;;12.50;65.96;102856.25;5045907;28;19929;-76
2023/05/18 08:51:18;;;;;;;;;;;;;;;12.41;67.91;102858.50;5025483;28;19932;-73
2023/05/18 08:53:43;;;;;;;;;;;;;;;12.35;68.47;102852.56;5025534;28;19932;-72
2023/05/18 08:56:09;;;;;;;;;;;;;;;12.60;67.43;102852.97;5027849;28;19921;-73
2023/05/18 08:58:34;;;;;;;;;;;;;;;12.84;67.22;102852.59;5026384;28;19921;-73
2023/05/18 09:01:00;;;;;;;;;;;;;;;12.98;63.46;102849.09;5025024;28;20387;-73
2023/05/18 09:03:26;;;;;;;;;;;;;;;12.80;64.09;102842.06;5020923;28;20048;-73
2023/05/18 09:05:51;;;;;;;;;;;;;;;12.52;64.41;102852.53;5030383;28;19967;-72
2023/05/18 09:08:17;;;;;;;;;;;;;;;12.63;65.37;102849.25;5028683;28;20379;-73
2023/05/18 09:10:44;;;;;;;;;;;;;;;12.89;65.23;102855.03;5023703;28;20391;-74
2023/05/18 09:13:09;;;;;;;;;;;;;;;13.14;62.14;102843.72;5029948;28;19921;-77
2023/05/18 09:15:34;;;;;;;;;;;;;;;13.30;67.47;102841.03;5029767;28;19920;-73
2023/05/18 09:18:00;;;;;;;;;;;;;;;13.58;66.66;102842.16;5029741;28;20402;-76
2023/05/18 09:20:25;;;;;;;;;;;;;;;13.76;65.37;102837.50;5023853;28;19951;-73
2023/05/18 09:22:50;;;;;;;;;;;;;;;13.64;66.54;102847.19;5030907;28;20350;-72
2023/05/18 09:25:15;;;;;;;;;;;;;;;13.54;59.46;102840.56;5026295;28;20050;-72
2023/05/18 09:27:40;;;;;;;;;;;;;;;13.45;62.15;102835.75;5028758;28;19920;-73
2023/05/18 09:30:08;;;;;;;;;;;;;;;13.27;67.96;102846.59;5028148;28;19920;-74
2023/05/18 09:32:35;;;;;;;;;;;;;;;13.78;64.46;102832.88;5029222;28;20354;-73
2023/05/18 09:35:05;;;;;;;;;;;;;;;13.75;58.56;102835.75;5028278;28;19924;-73
2023/05/18 09:37:31;;;;;;;;;;;;;;;14.05;59.17;102833.97;5045596;28;20384;-73
2023/05/18 09:40:00;;;;;;;;;;;;;;;14.19;61.07;102819.63;5031744;28;20408;-74
2023/05/18 09:42:33;;;;;;;;;;;;;;;14.29;59.89;102825.34;5029202;28;19920;-73
2023/05/18 09:44:59;;;;;;;;;;;;;;;14.22;59.63;102836.53;5025057;28;20393;-72
2023/05/18 09:47:26;;;;;;;;;;;;;;;14.25;58.90;102830.94;5032537;28;20039;-72
2023/05/18 09:49:51;;;;;;;;;;;;;;;13.91;58.46;102832.13;5031670;28;20368;-73
2023/05/18 09:52:16;;;;;;;;;;;;;;;13.58;57.53;102831.34;5032034;28;19947;-72
2023/05/18 09:54:41;;;;;;;;;;;;;;;13.93;59.91;102816.69;5031980;28;19932;-76
2023/05/18 09:57:07;;;;;;;;;;;;;;;13.69;59.24;102825.31;5029011;28;19971;-73
2023/05/18 09:59:35;;;;;;;;;;;;;;;14.25;65.06;102811.16;5030895;28;19921;-73
2023/05/18 10:02:01;;;;;;;;;;;;;;;14.44;64.54;102816.28;5019861;28;20303;-73
2023/05/18 10:04:52;;;;;;;;;;;;;;;14.87;62.89;102820.81;5034434;28;20385;-74
2023/05/18 10:07:17;;;;;;;;;;;;;;;15.07;57.06;102815.94;5030335;28;19920;-73
2023/05/18 10:09:44;;;;;;;;;;;;;;;15.44;56.97;102816.19;5034405;28;20338;-72
2023/05/18 10:12:10;;;;;;;;;;;;;;;15.04;53.77;102817.00;5030597;28;19971;-73
2023/05/18 10:14:35;;;;;;;;;;;;;;;15.56;55.66;102803.69;5050422;28;20528;-73
2023/05/18 10:17:04;;;;;;;;;;;;;;;15.66;53.33;102810.19;5034161;28;20461;-73
2023/05/18 10:19:29;;;;;;;;;;;;;;;16.02;53.48;102800.53;5036971;28;20430;-73
2023/05/18 10:21:56;;;;;;;;;;;;;;;16.25;54.06;102810.72;5033410;28;19924;-73
2023/05/18 10:24:21;;;;;;;;;;;;;;;15.82;55.10;102809.13;5032383;28;19988;-74
2023/05/18 10:26:46;;;;;;;;;;;;;;;15.56;50.42;102803.69;5049996;28;19931;-73
2023/05/18 10:29:11;;;;;;;;;;;;;;;16.33;52.67;102800.19;5028207;28;19927;-74
2023/05/18 10:31:36;;;;;;;;;;;;;;;16.30;51.43;102800.41;5031966;28;19925;-73
2023/05/18 10:34:02;;;;;;;;;;;;;;;16.28;50.96;102795.09;5025669;28;19925;-72
2023/05/18 10:36:28;;;;;;;;;;;;;;;16.71;50.63;102793.84;5034831;28;19925;-74
2023/05/18 10:38:54;;;;;;;;;;;;;;;17.25;52.27;102789.00;5030149;28;19920;-74
2023/05/18 10:41:21;;;;;;;;;;;;;;;17.70;47.90;102796.47;5029004;28;19921;-74
2023/05/18 10:43:46;;;;;;;;;;;;;;;17.71;48.16;102797.31;5028336;28;20050;-74
2023/05/18 10:46:11;;;;;;;;;;;;;;;17.27;45.77;102792.47;5030428;28;19929;-73
2023/05/18 10:48:37;;;;;;;;;;;;;;;17.22;46.21;102784.66;5026204;28;19924;-73
2023/05/18 10:51:04;;;;;;;;;;;;;;;18.10;48.26;102778.94;5010612;28;20271;-72
2023/05/18 10:53:30;;;;;;;;;;;;;;;18.29;46.00;102786.44;5031520;28;19924;-72
2023/05/18 10:55:55;;;;;;;;;;;;;;;18.33;50.08;102781.66;5041189;28;19962;-74
2023/05/18 10:58:21;;;;;;;;;;;;;;;18.84;48.67;102778.38;5030869;28;19979;-72
2023/05/18 11:00:59;;;;;;;;;;;;;;;18.64;47.46;102788.19;5031245;28;20236;-72
2023/05/18 11:03:25;;;;;;;;;;;;;;;18.50;45.84;102777.56;5031209;28;20102;-72
2023/05/18 11:06:07;;;;;;;;;;;;;;;19.16;45.92;102771.25;5027913;28;19931;-72
2023/05/18 11:08:32;;;;;;;;;;;;;;;18.56;44.19;102777.03;5046120;28;19921;-73
2023/05/18 11:11:00;;;;;;;;;;;;;;;17.69;45.39;102775.72;5029980;28;19932;-75
2023/05/18 11:13:30;;;;;;;;;;;;;;;17.42;43.89;102779.59;5030012;28;19925;-72
2023/05/18 11:15:55;;;;;;;;;;;;;;;16.82;45.27;102767.78;5030635;28;19928;-74
2023/05/18 11:18:39;;;;;;;;;;;;;;;17.45;48.24;102760.34;5030027;28;20109;-76
2023/05/18 11:21:40;;;;;;;;;;;;;;;18.32;44.87;102760.88;5034352;28;19964;-74
2023/05/18 11:24:43;;;;;;;;;;;;;;;18.86;44.33;102762.78;5010839;28;20412;-75
2023/05/18 11:27:15;;;;;;;;;;;;;;;19.03;43.64;102758.69;4987362;28;19925;-78
2023/05/18 11:29:40;;;;;;;;;;;;;;;18.55;46.10;102759.88;4990617;28;20027;-73
2023/05/18 11:32:30;;;;;;;;;;;;;;;19.51;44.73;102761.06;4999056;28;19924;-72
2023/05/18 11:34:56;;;;;;;;;;;;;;;19.65;43.43;102758.03;5028214;28;20548;-72
2023/05/18 11:37:36;;;;;;;;;;;;;;;20.12;42.10;102754.03;5032601;28;20211;-76
2023/05/18 11:40:03;;;;;;;;;;;;;;;19.71;42.83;102752.06;5024508;28;20105;-72
2023/05/18 11:42:32;;;;;;;;;;;;;;;19.68;43.22;102751.44;5027107;28;20059;-72
2023/05/18 11:44:58;;;;;;;;;;;;;;;20.02;42.22;102754.84;5026449;28;20065;-72
2023/05/18 11:47:29;;;;;;;;;;;;;;;19.36;40.75;102755.09;5025332;28;19921;-73
2023/05/18 11:49:55;;;;;;;;;;;;;;;19.58;42.51;102755.00;5027647;28;19925;-73
2023/05/18 11:52:21;;;;;;;;;;;;;;;19.34;43.83;102745.19;5028624;28;20449;-74
2023/05/18 11:54:52;;;;;;;;;;;;;;;18.88;42.67;102747.22;5021025;28;19925;-72
2023/05/18 11:57:18;;;;;;;;;;;;;;;18.77;41.83;102749.94;5026251;28;19931;-73
2023/05/18 11:59:44;;;;;;;;;;;;;;;18.93;44.24;102738.66;5025772;28;19924;-73
2023/05/18 12:02:11;;;;;;;;;;;;;;;19.38;41.90;102734.03;5024381;28;20698;-76
2023/05/18 12:04:41;;;;;;;;;;;;;;;19.79;45.76;102738.63;5042723;28;19931;-72
2023/05/18 12:07:06;;;;;;;;;;;;;;;19.64;40.52;102739.97;5029623;28;20603;-73
2023/05/18 12:09:31;;;;;;;;;;;;;;;19.07;42.90;102729.34;5026075;28;19927;-73
2023/05/18 12:11:57;;;;;;;;;;;;;;;19.83;42.59;102714.69;5027787;28;20352;-75
2023/05/18 12:14:22;;;;;;;;;;;;;;;19.60;41.38;102716.69;5028597;28;19972;-71
2023/05/18 12:16:48;;;;;;;;;;;;;;;19.17;45.26;102703.09;5029714;28;19967;-76
2023/05/18 12:19:13;;;;;;;;;;;;;;;19.91;43.42;102719.50;5026925;28;21748;-74
2023/05/18 12:21:39;;;;;;;;;;;;;;;19.93;43.15;102720.22;5024730;28;19921;-74
2023/05/18 12:24:04;;;;;;;;;;;;;;;20.72;38.75;102726.78;5029586;28;19921;-75
2023/05/18 12:26:30;;;;;;;;;;;;;;;21.18;39.18;102726.31;5029933;28;20427;-73
2023/05/18 12:28:56;;;;;;;;;;;;;;;22.14;38.39;102734.44;5023711;28;19921;-73
2023/05/18 12:31:22;;;;;;;;;;;;;;;22.62;36.10;102731.66;5026949;28;20523;-73
2023/05/18 12:33:47;;;;;;;;;;;;;;;21.05;38.31;102721.97;5008354;28;20364;-72
2023/05/18 12:36:13;;;;;;;;;;;;;;;20.92;39.24;102729.59;5029715;28;19970;-72